sensor_id;sensor_type;location;lat;lon;timestamp;temperature;humidity
15906;DHT22;8051;50.820;4.884;2023-02-19T00:01:07;9.80;99.90
15906;DHT22;8051;50.820;4.884;2023-02-19T00:03:35;9.70;99.90
15906;DHT22;8051;50.820;4.884;2023-02-19T00:06:03;9.80;99.90
15906;DHT22;8051;50.820;4.884;2023-02-19T00:08:34;9.80;99.90
15906;DHT22;8051;50.820;4.884;2023-02-19T00:11:02;9.80;99.90
15906;DHT22;8051;50.820;4.884;2023-02-19T00:13:30;9.80;99.90
15906;DHT22;8051;50.820;4.884;2023-02-19T00:15:58;9.80;99.90
15906;DHT22;8051;50.820;4.884;2023-02-19T00:18:31;9.80;99.90
15906;DHT22;8051;50.820;4.884;2023-02-19T00:20:58;9.70;99.90
15906;DHT22;8051;50.820;4.884;2023-02-19T00:23:26;9.70;99.90
15906;DHT22;8051;50.820;4.884;2023-02-19T00:25:55;9.70;99.90
15906;DHT22;8051;50.820;4.884;2023-02-19T00:28:23;9.70;99.90
15906;DHT22;8051;50.820;4.884;2023-02-19T00:30:50;9.70;99.90
15906;DHT22;8051;50.820;4.884;2023-02-19T00:33:18;9.70;99.90
15906;DHT22;8051;50.820;4.884;2023-02-19T00:35:45;9.70;99.90
15906;DHT22;8051;50.820;4.884;2023-02-19T00:38:13;9.70;99.90
15906;DHT22;8051;50.820;4.884;2023-02-19T00:40:41;9.70;99.90
15906;DHT22;8051;50.820;4.884;2023-02-19T00:43:09;9.60;99.90
15906;DHT22;8051;50.820;4.884;2023-02-19T00:45:37;9.60;99.90
15906;DHT22;8051;50.820;4.884;2023-02-19T00:48:05;9.70;99.90
15906;DHT22;8051;50.820;4.884;2023-02-19T00:50:32;9.60;99.90
15906;DHT22;8051;50.820;4.884;2023-02-19T00:52:59;9.60;99.90
15906;DHT22;8051;50.820;4.884;2023-02-19T00:55:27;9.60;99.90
15906;DHT22;8051;50.820;4.884;2023-02-19T00:57:54;9.70;99.90
15906;DHT22;8051;50.820;4.884;2023-02-19T01:00:23;9.70;99.90
15906;DHT22;8051;50.820;4.884;2023-02-19T01:02:51;9.70;99.90
15906;DHT22;8051;50.820;4.884;2023-02-19T01:05:18;9.80;99.90
15906;DHT22;8051;50.820;4.884;2023-02-19T01:07:46;9.80;99.90
15906;DHT22;8051;50.820;4.884;2023-02-19T01:10:13;9.80;99.90
15906;DHT22;8051;50.820;4.884;2023-02-19T01:12:41;9.90;99.90
15906;DHT22;8051;50.820;4.884;2023-02-19T01:15:08;9.90;99.90
15906;DHT22;8051;50.820;4.884;2023-02-19T01:17:37;9.90;99.90
15906;DHT22;8051;50.820;4.884;2023-02-19T01:20:05;9.90;99.90
15906;DHT22;8051;50.820;4.884;2023-02-19T01:22:33;9.90;99.90
15906;DHT22;8051;50.820;4.884;2023-02-19T01:25:00;10.00;99.90
15906;DHT22;8051;50.820;4.884;2023-02-19T01:27:28;9.90;99.90
15906;DHT22;8051;50.820;4.884;2023-02-19T01:29:55;9.90;99.90
15906;DHT22;8051;50.820;4.884;2023-02-19T01:32:23;9.90;99.90
15906;DHT22;8051;50.820;4.884;2023-02-19T01:34:52;9.90;99.90
15906;DHT22;8051;50.820;4.884;2023-02-19T01:37:19;9.90;99.90
15906;DHT22;8051;50.820;4.884;2023-02-19T01:39:47;9.90;99.90
15906;DHT22;8051;50.820;4.884;2023-02-19T01:42:15;9.90;99.90
15906;DHT22;8051;50.820;4.884;2023-02-19T01:47:53;9.90;99.90
15906;DHT22;8051;50.820;4.884;2023-02-19T01:50:25;10.00;99.90
15906;DHT22;8051;50.820;4.884;2023-02-19T01:52:54;10.00;99.90
15906;DHT22;8051;50.820;4.884;2023-02-19T01:55:23;10.00;99.90
15906;DHT22;8051;50.820;4.884;2023-02-19T01:57:53;10.00;99.90
15906;DHT22;8051;50.820;4.884;2023-02-19T02:00:21;10.00;99.90
15906;DHT22;8051;50.820;4.884;2023-02-19T02:02:51;10.00;99.90
15906;DHT22;8051;50.820;4.884;2023-02-19T02:05:34;10.00;99.90
15906;DHT22;8051;50.820;4.884;2023-02-19T02:08:02;9.90;99.90
15906;DHT22;8051;50.820;4.884;2023-02-19T02:10:48;10.00;99.90
15906;DHT22;8051;50.820;4.884;2023-02-19T02:13:16;10.00;99.90
15906;DHT22;8051;50.820;4.884;2023-02-19T02:15:50;9.90;99.90
15906;DHT22;8051;50.820;4.884;2023-02-19T02:18:30;9.90;99.90
15906;DHT22;8051;50.820;4.884;2023-02-19T02:24:13;9.80;99.90
15906;DHT22;8051;50.820;4.884;2023-02-19T02:26:57;9.80;99.90
15906;DHT22;8051;50.820;4.884;2023-02-19T02:30:04;9.80;99.90
15906;DHT22;8051;50.820;4.884;2023-02-19T02:32:36;9.80;99.90
15906;DHT22;8051;50.820;4.884;2023-02-19T02:35:08;9.80;99.90
15906;DHT22;8051;50.820;4.884;2023-02-19T02:37:40;9.80;99.90
15906;DHT22;8051;50.820;4.884;2023-02-19T02:40:10;9.80;99.90
15906;DHT22;8051;50.820;4.884;2023-02-19T02:42:39;9.80;99.90
15906;DHT22;8051;50.820;4.884;2023-02-19T02:51:11;9.80;99.90
15906;DHT22;8051;50.820;4.884;2023-02-19T02:53:45;9.80;99.90
15906;DHT22;8051;50.820;4.884;2023-02-19T02:56:31;9.80;99.90
15906;DHT22;8051;50.820;4.884;2023-02-19T02:59:03;9.80;99.90
15906;DHT22;8051;50.820;4.884;2023-02-19T03:01:36;9.70;99.90
15906;DHT22;8051;50.820;4.884;2023-02-19T03:04:26;9.80;99.90
15906;DHT22;8051;50.820;4.884;2023-02-19T03:07:02;9.80;99.90
15906;DHT22;8051;50.820;4.884;2023-02-19T03:09:34;9.70;99.90
15906;DHT22;8051;50.820;4.884;2023-02-19T03:12:09;9.70;99.90
15906;DHT22;8051;50.820;4.884;2023-02-19T03:14:57;9.70;99.90
15906;DHT22;8051;50.820;4.884;2023-02-19T03:17:47;9.70;99.90
15906;DHT22;8051;50.820;4.884;2023-02-19T03:20:37;9.70;99.90
15906;DHT22;8051;50.820;4.884;2023-02-19T03:23:08;9.70;99.90
15906;DHT22;8051;50.820;4.884;2023-02-19T03:25:37;9.70;99.90
15906;DHT22;8051;50.820;4.884;2023-02-19T03:28:25;9.70;99.90
15906;DHT22;8051;50.820;4.884;2023-02-19T03:31:09;9.70;99.90
15906;DHT22;8051;50.820;4.884;2023-02-19T03:33:38;9.70;99.90
15906;DHT22;8051;50.820;4.884;2023-02-19T03:36:09;9.70;99.90
15906;DHT22;8051;50.820;4.884;2023-02-19T03:38:44;9.70;99.90
15906;DHT22;8051;50.820;4.884;2023-02-19T03:41:20;9.70;99.90
15906;DHT22;8051;50.820;4.884;2023-02-19T03:43:54;9.70;99.90
15906;DHT22;8051;50.820;4.884;2023-02-19T03:46:32;9.70;99.90
15906;DHT22;8051;50.820;4.884;2023-02-19T03:49:07;9.70;99.90
15906;DHT22;8051;50.820;4.884;2023-02-19T03:51:42;9.70;99.90
15906;DHT22;8051;50.820;4.884;2023-02-19T03:54:17;9.70;99.90
15906;DHT22;8051;50.820;4.884;2023-02-19T03:56:51;9.70;99.90
15906;DHT22;8051;50.820;4.884;2023-02-19T03:59:25;9.70;99.90
15906;DHT22;8051;50.820;4.884;2023-02-19T04:01:56;9.70;99.90
15906;DHT22;8051;50.820;4.884;2023-02-19T04:04:28;9.60;99.90
15906;DHT22;8051;50.820;4.884;2023-02-19T04:06:58;9.60;99.90
15906;DHT22;8051;50.820;4.884;2023-02-19T04:09:29;9.60;99.90
15906;DHT22;8051;50.820;4.884;2023-02-19T04:12:00;9.60;99.90
15906;DHT22;8051;50.820;4.884;2023-02-19T04:14:31;9.60;99.90
15906;DHT22;8051;50.820;4.884;2023-02-19T04:17:01;9.60;99.90
15906;DHT22;8051;50.820;4.884;2023-02-19T04:19:31;9.70;99.90
15906;DHT22;8051;50.820;4.884;2023-02-19T04:22:00;9.70;99.90
15906;DHT22;8051;50.820;4.884;2023-02-19T04:24:32;9.70;99.90
15906;DHT22;8051;50.820;4.884;2023-02-19T04:27:02;9.70;99.90
15906;DHT22;8051;50.820;4.884;2023-02-19T04:29:29;9.70;99.90
15906;DHT22;8051;50.820;4.884;2023-02-19T04:31:57;9.70;99.90
15906;DHT22;8051;50.820;4.884;2023-02-19T04:34:24;9.70;99.90
15906;DHT22;8051;50.820;4.884;2023-02-19T04:36:52;9.70;99.90
15906;DHT22;8051;50.820;4.884;2023-02-19T04:39:19;9.70;99.90
15906;DHT22;8051;50.820;4.884;2023-02-19T04:41:48;9.70;99.90
15906;DHT22;8051;50.820;4.884;2023-02-19T04:44:16;9.70;99.90
15906;DHT22;8051;50.820;4.884;2023-02-19T04:46:43;9.70;99.90
15906;DHT22;8051;50.820;4.884;2023-02-19T04:49:11;9.70;99.90
15906;DHT22;8051;50.820;4.884;2023-02-19T04:51:38;9.70;99.90
15906;DHT22;8051;50.820;4.884;2023-02-19T04:54:06;9.70;99.90
15906;DHT22;8051;50.820;4.884;2023-02-19T04:56:34;9.70;99.90
15906;DHT22;8051;50.820;4.884;2023-02-19T04:59:03;9.70;99.90
15906;DHT22;8051;50.820;4.884;2023-02-19T05:01:30;9.70;99.90
15906;DHT22;8051;50.820;4.884;2023-02-19T05:03:58;9.70;99.90
15906;DHT22;8051;50.820;4.884;2023-02-19T05:06:25;9.60;99.90
15906;DHT22;8051;50.820;4.884;2023-02-19T05:08:53;9.60;99.90
15906;DHT22;8051;50.820;4.884;2023-02-19T05:11:21;9.60;99.90
15906;DHT22;8051;50.820;4.884;2023-02-19T05:13:49;9.60;99.90
15906;DHT22;8051;50.820;4.884;2023-02-19T05:16:18;9.60;99.90
15906;DHT22;8051;50.820;4.884;2023-02-19T05:18:45;9.60;99.90
15906;DHT22;8051;50.820;4.884;2023-02-19T05:21:14;9.60;99.90
15906;DHT22;8051;50.820;4.884;2023-02-19T05:23:41;9.60;99.90
15906;DHT22;8051;50.820;4.884;2023-02-19T05:26:11;9.60;99.90
15906;DHT22;8051;50.820;4.884;2023-02-19T05:28:41;9.60;99.90
15906;DHT22;8051;50.820;4.884;2023-02-19T05:31:11;9.60;99.90
15906;DHT22;8051;50.820;4.884;2023-02-19T05:33:40;9.60;99.90
15906;DHT22;8051;50.820;4.884;2023-02-19T05:36:10;9.60;99.90
15906;DHT22;8051;50.820;4.884;2023-02-19T05:38:39;9.60;99.90
15906;DHT22;8051;50.820;4.884;2023-02-19T05:41:08;9.50;99.90
15906;DHT22;8051;50.820;4.884;2023-02-19T05:43:37;9.50;99.90
15906;DHT22;8051;50.820;4.884;2023-02-19T05:46:04;9.50;99.90
15906;DHT22;8051;50.820;4.884;2023-02-19T05:48:32;9.50;99.90
15906;DHT22;8051;50.820;4.884;2023-02-19T05:51:05;9.50;99.90
15906;DHT22;8051;50.820;4.884;2023-02-19T05:53:33;9.50;99.90
15906;DHT22;8051;50.820;4.884;2023-02-19T05:56:01;9.50;99.90
15906;DHT22;8051;50.820;4.884;2023-02-19T05:58:29;9.50;99.90
15906;DHT22;8051;50.820;4.884;2023-02-19T06:00:56;9.50;99.90
15906;DHT22;8051;50.820;4.884;2023-02-19T06:03:24;9.50;99.90
15906;DHT22;8051;50.820;4.884;2023-02-19T06:05:51;9.50;99.90
15906;DHT22;8051;50.820;4.884;2023-02-19T06:08:20;9.50;99.90
15906;DHT22;8051;50.820;4.884;2023-02-19T06:10:48;9.50;99.90
15906;DHT22;8051;50.820;4.884;2023-02-19T06:13:15;9.50;99.90
15906;DHT22;8051;50.820;4.884;2023-02-19T06:15:42;9.50;99.90
15906;DHT22;8051;50.820;4.884;2023-02-19T06:18:10;9.50;99.90
15906;DHT22;8051;50.820;4.884;2023-02-19T06:20:37;9.50;99.90
15906;DHT22;8051;50.820;4.884;2023-02-19T06:23:04;9.50;99.90
15906;DHT22;8051;50.820;4.884;2023-02-19T06:25:33;9.40;99.90
15906;DHT22;8051;50.820;4.884;2023-02-19T06:28:01;9.40;99.90
15906;DHT22;8051;50.820;4.884;2023-02-19T06:30:28;9.40;99.90
15906;DHT22;8051;50.820;4.884;2023-02-19T06:32:56;9.40;99.90
15906;DHT22;8051;50.820;4.884;2023-02-19T06:35:23;9.40;99.90
15906;DHT22;8051;50.820;4.884;2023-02-19T06:37:50;9.40;99.90
15906;DHT22;8051;50.820;4.884;2023-02-19T06:40:18;9.40;99.90
15906;DHT22;8051;50.820;4.884;2023-02-19T06:42:47;9.40;99.90
15906;DHT22;8051;50.820;4.884;2023-02-19T06:45:15;9.40;99.90
15906;DHT22;8051;50.820;4.884;2023-02-19T06:47:42;9.40;99.90
15906;DHT22;8051;50.820;4.884;2023-02-19T06:50:09;9.40;99.90
15906;DHT22;8051;50.820;4.884;2023-02-19T06:52:37;9.40;99.90
15906;DHT22;8051;50.820;4.884;2023-02-19T06:55:05;9.40;99.90
15906;DHT22;8051;50.820;4.884;2023-02-19T06:57:32;9.40;99.90
15906;DHT22;8051;50.820;4.884;2023-02-19T07:00:01;9.50;99.90
15906;DHT22;8051;50.820;4.884;2023-02-19T07:02:29;9.50;99.90
15906;DHT22;8051;50.820;4.884;2023-02-19T07:04:56;9.50;99.90
15906;DHT22;8051;50.820;4.884;2023-02-19T07:07:24;9.50;99.90
15906;DHT22;8051;50.820;4.884;2023-02-19T07:09:51;9.50;99.90
15906;DHT22;8051;50.820;4.884;2023-02-19T07:12:19;9.50;99.90
15906;DHT22;8051;50.820;4.884;2023-02-19T07:14:46;9.50;99.90
15906;DHT22;8051;50.820;4.884;2023-02-19T07:17:15;9.50;99.90
15906;DHT22;8051;50.820;4.884;2023-02-19T07:19:43;9.50;99.90
15906;DHT22;8051;50.820;4.884;2023-02-19T07:22:10;9.50;99.90
15906;DHT22;8051;50.820;4.884;2023-02-19T07:24:38;9.50;99.90
15906;DHT22;8051;50.820;4.884;2023-02-19T07:27:05;9.50;99.90
15906;DHT22;8051;50.820;4.884;2023-02-19T07:29:33;9.50;99.90
15906;DHT22;8051;50.820;4.884;2023-02-19T07:32:00;9.50;99.90
15906;DHT22;8051;50.820;4.884;2023-02-19T07:34:29;9.50;99.90
15906;DHT22;8051;50.820;4.884;2023-02-19T07:36:57;9.50;99.90
15906;DHT22;8051;50.820;4.884;2023-02-19T07:39:24;9.60;99.90
15906;DHT22;8051;50.820;4.884;2023-02-19T07:41:52;9.60;99.90
15906;DHT22;8051;50.820;4.884;2023-02-19T07:44:19;9.40;99.90
15906;DHT22;8051;50.820;4.884;2023-02-19T07:46:47;9.30;99.90
15906;DHT22;8051;50.820;4.884;2023-02-19T07:49:14;9.30;99.90
15906;DHT22;8051;50.820;4.884;2023-02-19T07:51:43;9.30;99.90
15906;DHT22;8051;50.820;4.884;2023-02-19T07:54:11;9.30;99.90
15906;DHT22;8051;50.820;4.884;2023-02-19T07:56:38;9.40;99.90
15906;DHT22;8051;50.820;4.884;2023-02-19T07:59:06;9.50;99.90
15906;DHT22;8051;50.820;4.884;2023-02-19T08:01:34;9.60;99.90
15906;DHT22;8051;50.820;4.884;2023-02-19T08:04:19;9.60;99.90
15906;DHT22;8051;50.820;4.884;2023-02-19T08:06:48;9.60;99.90
15906;DHT22;8051;50.820;4.884;2023-02-19T08:09:15;9.70;99.90
15906;DHT22;8051;50.820;4.884;2023-02-19T08:11:43;9.80;99.90
15906;DHT22;8051;50.820;4.884;2023-02-19T08:14:28;9.80;99.90
15906;DHT22;8051;50.820;4.884;2023-02-19T08:16:55;9.80;99.90
15906;DHT22;8051;50.820;4.884;2023-02-19T08:19:23;9.70;99.90
15906;DHT22;8051;50.820;4.884;2023-02-19T08:21:52;9.80;99.90
15906;DHT22;8051;50.820;4.884;2023-02-19T08:24:19;9.80;99.90
15906;DHT22;8051;50.820;4.884;2023-02-19T08:26:47;9.80;99.90
15906;DHT22;8051;50.820;4.884;2023-02-19T08:29:14;9.80;99.90
15906;DHT22;8051;50.820;4.884;2023-02-19T08:31:42;9.80;99.90
15906;DHT22;8051;50.820;4.884;2023-02-19T08:34:09;9.80;99.90
15906;DHT22;8051;50.820;4.884;2023-02-19T08:36:37;9.60;99.90
15906;DHT22;8051;50.820;4.884;2023-02-19T08:39:06;9.50;99.90
15906;DHT22;8051;50.820;4.884;2023-02-19T08:41:33;9.40;99.90
15906;DHT22;8051;50.820;4.884;2023-02-19T08:44:01;9.40;99.90
15906;DHT22;8051;50.820;4.884;2023-02-19T08:46:28;9.30;99.90
15906;DHT22;8051;50.820;4.884;2023-02-19T08:48:56;9.20;99.90
15906;DHT22;8051;50.820;4.884;2023-02-19T08:51:23;9.10;99.90
15906;DHT22;8051;50.820;4.884;2023-02-19T08:53:51;9.00;99.90
15906;DHT22;8051;50.820;4.884;2023-02-19T08:56:20;9.00;99.90
15906;DHT22;8051;50.820;4.884;2023-02-19T08:58:47;9.00;99.90
15906;DHT22;8051;50.820;4.884;2023-02-19T09:01:16;9.10;99.90
15906;DHT22;8051;50.820;4.884;2023-02-19T09:03:44;9.20;99.90
15906;DHT22;8051;50.820;4.884;2023-02-19T09:06:14;9.30;99.90
15906;DHT22;8051;50.820;4.884;2023-02-19T09:08:42;9.30;99.90
15906;DHT22;8051;50.820;4.884;2023-02-19T09:11:10;9.40;99.90
15906;DHT22;8051;50.820;4.884;2023-02-19T09:13:39;9.50;99.90
15906;DHT22;8051;50.820;4.884;2023-02-19T09:16:07;9.50;99.90
15906;DHT22;8051;50.820;4.884;2023-02-19T09:18:34;9.60;99.90
15906;DHT22;8051;50.820;4.884;2023-02-19T09:21:03;9.70;99.90
15906;DHT22;8051;50.820;4.884;2023-02-19T09:23:32;9.70;99.90
15906;DHT22;8051;50.820;4.884;2023-02-19T09:26:00;9.80;99.90
15906;DHT22;8051;50.820;4.884;2023-02-19T09:28:28;9.80;99.90
15906;DHT22;8051;50.820;4.884;2023-02-19T09:31:02;9.70;99.90
15906;DHT22;8051;50.820;4.884;2023-02-19T09:33:29;9.70;99.90
15906;DHT22;8051;50.820;4.884;2023-02-19T09:35:58;9.70;99.90
15906;DHT22;8051;50.820;4.884;2023-02-19T09:38:26;9.70;99.90
15906;DHT22;8051;50.820;4.884;2023-02-19T09:40:55;9.70;99.90
15906;DHT22;8051;50.820;4.884;2023-02-19T09:43:25;9.80;99.90
15906;DHT22;8051;50.820;4.884;2023-02-19T09:45:59;9.90;99.90
15906;DHT22;8051;50.820;4.884;2023-02-19T09:48:28;9.80;99.90
15906;DHT22;8051;50.820;4.884;2023-02-19T09:50:57;9.90;99.90
15906;DHT22;8051;50.820;4.884;2023-02-19T09:53:31;10.10;99.90
15906;DHT22;8051;50.820;4.884;2023-02-19T09:55:58;10.30;99.90
15906;DHT22;8051;50.820;4.884;2023-02-19T09:58:31;10.50;99.90
15906;DHT22;8051;50.820;4.884;2023-02-19T10:01:02;10.40;99.90
15906;DHT22;8051;50.820;4.884;2023-02-19T10:03:33;10.50;99.90
15906;DHT22;8051;50.820;4.884;2023-02-19T10:06:06;10.50;99.90
15906;DHT22;8051;50.820;4.884;2023-02-19T10:08:35;10.60;99.90
15906;DHT22;8051;50.820;4.884;2023-02-19T10:11:04;10.70;99.90
15906;DHT22;8051;50.820;4.884;2023-02-19T10:13:35;10.70;99.90
15906;DHT22;8051;50.820;4.884;2023-02-19T10:16:06;10.80;99.90
15906;DHT22;8051;50.820;4.884;2023-02-19T10:18:41;11.00;99.90
15906;DHT22;8051;50.820;4.884;2023-02-19T10:21:13;11.00;99.90
15906;DHT22;8051;50.820;4.884;2023-02-19T10:23:42;10.90;99.90
15906;DHT22;8051;50.820;4.884;2023-02-19T10:26:10;11.00;99.90
15906;DHT22;8051;50.820;4.884;2023-02-19T10:28:38;11.00;99.90
15906;DHT22;8051;50.820;4.884;2023-02-19T10:31:14;11.00;99.90
15906;DHT22;8051;50.820;4.884;2023-02-19T10:33:48;10.90;99.90
15906;DHT22;8051;50.820;4.884;2023-02-19T10:36:26;10.80;99.90
15906;DHT22;8051;50.820;4.884;2023-02-19T10:38:54;10.90;99.90
15906;DHT22;8051;50.820;4.884;2023-02-19T10:41:23;10.90;99.90
15906;DHT22;8051;50.820;4.884;2023-02-19T10:43:54;11.00;99.90
15906;DHT22;8051;50.820;4.884;2023-02-19T10:46:25;10.90;99.90
15906;DHT22;8051;50.820;4.884;2023-02-19T10:48:56;10.90;99.90
15906;DHT22;8051;50.820;4.884;2023-02-19T10:51:31;11.00;99.90
15906;DHT22;8051;50.820;4.884;2023-02-19T10:54:06;11.10;99.90
15906;DHT22;8051;50.820;4.884;2023-02-19T10:56:40;11.20;99.90
15906;DHT22;8051;50.820;4.884;2023-02-19T10:59:23;11.50;99.90
15906;DHT22;8051;50.820;4.884;2023-02-19T11:01:57;11.60;99.90
15906;DHT22;8051;50.820;4.884;2023-02-19T11:04:26;11.50;99.90
15906;DHT22;8051;50.820;4.884;2023-02-19T11:06:54;11.40;99.90
15906;DHT22;8051;50.820;4.884;2023-02-19T11:09:26;11.20;99.90
15906;DHT22;8051;50.820;4.884;2023-02-19T11:11:55;11.10;99.90
15906;DHT22;8051;50.820;4.884;2023-02-19T11:14:24;10.90;99.90
15906;DHT22;8051;50.820;4.884;2023-02-19T11:16:53;10.70;99.90
15906;DHT22;8051;50.820;4.884;2023-02-19T11:19:29;10.60;99.90
15906;DHT22;8051;50.820;4.884;2023-02-19T11:21:58;10.50;99.90
15906;DHT22;8051;50.820;4.884;2023-02-19T11:24:31;10.30;99.90
15906;DHT22;8051;50.820;4.884;2023-02-19T11:27:01;10.40;99.90
15906;DHT22;8051;50.820;4.884;2023-02-19T11:29:30;10.50;99.90
15906;DHT22;8051;50.820;4.884;2023-02-19T11:32:24;10.70;99.90
15906;DHT22;8051;50.820;4.884;2023-02-19T11:35:16;10.90;99.90
15906;DHT22;8051;50.820;4.884;2023-02-19T11:37:58;11.10;99.90
15906;DHT22;8051;50.820;4.884;2023-02-19T11:40:38;11.20;99.90
15906;DHT22;8051;50.820;4.884;2023-02-19T11:43:22;11.10;99.90
15906;DHT22;8051;50.820;4.884;2023-02-19T11:46:01;11.00;99.90
15906;DHT22;8051;50.820;4.884;2023-02-19T11:48:44;11.10;99.90
15906;DHT22;8051;50.820;4.884;2023-02-19T11:51:25;11.00;99.90
15906;DHT22;8051;50.820;4.884;2023-02-19T11:54:12;11.00;99.90
15906;DHT22;8051;50.820;4.884;2023-02-19T11:56:47;11.10;99.90
15906;DHT22;8051;50.820;4.884;2023-02-19T11:59:19;11.00;99.90
15906;DHT22;8051;50.820;4.884;2023-02-19T12:05:17;11.00;99.90
15906;DHT22;8051;50.820;4.884;2023-02-19T12:08:28;11.00;99.90
15906;DHT22;8051;50.820;4.884;2023-02-19T12:11:13;11.00;99.90
15906;DHT22;8051;50.820;4.884;2023-02-19T12:14:04;11.00;99.90
15906;DHT22;8051;50.820;4.884;2023-02-19T12:16:40;11.00;99.90
15906;DHT22;8051;50.820;4.884;2023-02-19T12:19:22;11.10;99.90
15906;DHT22;8051;50.820;4.884;2023-02-19T12:22:05;11.00;99.90
15906;DHT22;8051;50.820;4.884;2023-02-19T12:27:48;10.80;99.90
15906;DHT22;8051;50.820;4.884;2023-02-19T12:30:34;10.80;99.90
15906;DHT22;8051;50.820;4.884;2023-02-19T12:33:32;10.80;99.90
15906;DHT22;8051;50.820;4.884;2023-02-19T12:36:19;10.90;99.90
15906;DHT22;8051;50.820;4.884;2023-02-19T12:38:55;10.90;99.90
15906;DHT22;8051;50.820;4.884;2023-02-19T12:41:30;11.00;99.90
15906;DHT22;8051;50.820;4.884;2023-02-19T12:44:04;11.00;99.90
15906;DHT22;8051;50.820;4.884;2023-02-19T12:46:38;11.00;99.90
15906;DHT22;8051;50.820;4.884;2023-02-19T12:49:10;11.00;99.90
15906;DHT22;8051;50.820;4.884;2023-02-19T12:51:43;11.10;99.90
15906;DHT22;8051;50.820;4.884;2023-02-19T12:54:17;11.00;99.90
15906;DHT22;8051;50.820;4.884;2023-02-19T12:56:53;10.90;99.90
15906;DHT22;8051;50.820;4.884;2023-02-19T12:59:25;10.90;99.90
15906;DHT22;8051;50.820;4.884;2023-02-19T13:01:59;10.90;99.90
15906;DHT22;8051;50.820;4.884;2023-02-19T13:04:39;10.90;99.90
15906;DHT22;8051;50.820;4.884;2023-02-19T13:07:13;10.90;99.90
15906;DHT22;8051;50.820;4.884;2023-02-19T13:09:47;11.00;99.90
15906;DHT22;8051;50.820;4.884;2023-02-19T13:12:20;11.00;99.90
15906;DHT22;8051;50.820;4.884;2023-02-19T13:14:54;11.00;99.90
15906;DHT22;8051;50.820;4.884;2023-02-19T13:17:26;11.00;99.90
15906;DHT22;8051;50.820;4.884;2023-02-19T13:19:58;10.90;99.90
15906;DHT22;8051;50.820;4.884;2023-02-19T13:22:31;10.90;99.90
15906;DHT22;8051;50.820;4.884;2023-02-19T13:25:18;10.80;99.90
15906;DHT22;8051;50.820;4.884;2023-02-19T13:28:01;10.70;99.90
15906;DHT22;8051;50.820;4.884;2023-02-19T13:30:42;10.70;99.90
15906;DHT22;8051;50.820;4.884;2023-02-19T13:33:24;10.60;99.90
15906;DHT22;8051;50.820;4.884;2023-02-19T13:36:02;10.50;99.90
15906;DHT22;8051;50.820;4.884;2023-02-19T13:38:37;10.30;99.90
15906;DHT22;8051;50.820;4.884;2023-02-19T13:41:06;9.90;99.90
15906;DHT22;8051;50.820;4.884;2023-02-19T13:43:43;9.60;99.90
15906;DHT22;8051;50.820;4.884;2023-02-19T13:46:15;9.40;99.90
15906;DHT22;8051;50.820;4.884;2023-02-19T13:48:43;9.50;99.90
15906;DHT22;8051;50.820;4.884;2023-02-19T13:51:47;9.50;99.90
15906;DHT22;8051;50.820;4.884;2023-02-19T13:54:24;9.60;99.90
15906;DHT22;8051;50.820;4.884;2023-02-19T13:57:26;9.80;99.90
15906;DHT22;8051;50.820;4.884;2023-02-19T13:59:55;9.90;99.90
15906;DHT22;8051;50.820;4.884;2023-02-19T14:02:33;9.90;99.90
15906;DHT22;8051;50.820;4.884;2023-02-19T14:05:04;10.00;99.90
15906;DHT22;8051;50.820;4.884;2023-02-19T14:07:48;10.00;99.90
15906;DHT22;8051;50.820;4.884;2023-02-19T14:14:00;10.20;99.90
15906;DHT22;8051;50.820;4.884;2023-02-19T14:16:56;10.10;99.90
15906;DHT22;8051;50.820;4.884;2023-02-19T14:25:35;9.60;99.90
15906;DHT22;8051;50.820;4.884;2023-02-19T14:28:17;9.50;99.90
15906;DHT22;8051;50.820;4.884;2023-02-19T14:30:50;9.50;99.90
15906;DHT22;8051;50.820;4.884;2023-02-19T14:33:21;9.40;99.90
15906;DHT22;8051;50.820;4.884;2023-02-19T14:35:53;9.30;99.90
15906;DHT22;8051;50.820;4.884;2023-02-19T14:38:26;9.10;99.90
15906;DHT22;8051;50.820;4.884;2023-02-19T14:40:55;9.10;99.90
15906;DHT22;8051;50.820;4.884;2023-02-19T14:43:24;9.10;99.90
15906;DHT22;8051;50.820;4.884;2023-02-19T14:45:55;9.10;99.90
15906;DHT22;8051;50.820;4.884;2023-02-19T14:48:27;9.00;99.90
15906;DHT22;8051;50.820;4.884;2023-02-19T14:51:02;8.90;99.90
15906;DHT22;8051;50.820;4.884;2023-02-19T14:53:32;8.80;99.90
15906;DHT22;8051;50.820;4.884;2023-02-19T14:56:03;8.80;99.90
15906;DHT22;8051;50.820;4.884;2023-02-19T14:58:32;8.70;99.90
15906;DHT22;8051;50.820;4.884;2023-02-19T15:01:01;8.70;99.90
15906;DHT22;8051;50.820;4.884;2023-02-19T15:03:33;8.70;99.90
15906;DHT22;8051;50.820;4.884;2023-02-19T15:06:05;8.70;99.90
15906;DHT22;8051;50.820;4.884;2023-02-19T15:08:36;8.60;99.90
15906;DHT22;8051;50.820;4.884;2023-02-19T15:11:09;8.60;99.90
15906;DHT22;8051;50.820;4.884;2023-02-19T15:13:38;8.60;99.90
15906;DHT22;8051;50.820;4.884;2023-02-19T15:16:14;8.50;99.90
15906;DHT22;8051;50.820;4.884;2023-02-19T15:18:44;8.50;99.90
15906;DHT22;8051;50.820;4.884;2023-02-19T15:21:21;8.60;99.90
15906;DHT22;8051;50.820;4.884;2023-02-19T15:23:50;8.60;99.90
15906;DHT22;8051;50.820;4.884;2023-02-19T15:26:21;8.60;99.90
15906;DHT22;8051;50.820;4.884;2023-02-19T15:28:57;8.80;99.90
15906;DHT22;8051;50.820;4.884;2023-02-19T15:31:26;9.00;99.90
15906;DHT22;8051;50.820;4.884;2023-02-19T15:33:54;9.10;99.90
15906;DHT22;8051;50.820;4.884;2023-02-19T15:36:29;9.20;99.90
15906;DHT22;8051;50.820;4.884;2023-02-19T15:38:59;9.20;99.90
15906;DHT22;8051;50.820;4.884;2023-02-19T15:41:30;9.30;99.90
15906;DHT22;8051;50.820;4.884;2023-02-19T15:44:16;9.30;99.90
15906;DHT22;8051;50.820;4.884;2023-02-19T15:46:47;9.20;99.90
15906;DHT22;8051;50.820;4.884;2023-02-19T15:49:19;9.20;99.90
15906;DHT22;8051;50.820;4.884;2023-02-19T15:51:54;9.10;99.90
15906;DHT22;8051;50.820;4.884;2023-02-19T15:54:25;9.10;99.90
15906;DHT22;8051;50.820;4.884;2023-02-19T15:56:57;9.10;99.90
15906;DHT22;8051;50.820;4.884;2023-02-19T15:59:29;9.10;99.90
15906;DHT22;8051;50.820;4.884;2023-02-19T16:01:58;9.10;99.90
15906;DHT22;8051;50.820;4.884;2023-02-19T16:04:28;9.10;99.90
15906;DHT22;8051;50.820;4.884;2023-02-19T16:06:58;9.10;99.90
15906;DHT22;8051;50.820;4.884;2023-02-19T16:09:29;9.10;99.90
15906;DHT22;8051;50.820;4.884;2023-02-19T16:11:58;9.00;99.90
15906;DHT22;8051;50.820;4.884;2023-02-19T16:14:30;9.10;99.90
15906;DHT22;8051;50.820;4.884;2023-02-19T16:17:04;9.00;99.90
15906;DHT22;8051;50.820;4.884;2023-02-19T16:19:44;9.00;99.90
15906;DHT22;8051;50.820;4.884;2023-02-19T16:22:16;9.00;99.90
15906;DHT22;8051;50.820;4.884;2023-02-19T16:24:46;9.00;99.90
15906;DHT22;8051;50.820;4.884;2023-02-19T16:27:27;8.90;99.90
15906;DHT22;8051;50.820;4.884;2023-02-19T16:29:56;8.80;99.90
15906;DHT22;8051;50.820;4.884;2023-02-19T16:32:25;8.70;99.90
15906;DHT22;8051;50.820;4.884;2023-02-19T16:34:52;8.70;99.90
15906;DHT22;8051;50.820;4.884;2023-02-19T16:37:32;8.70;99.90
15906;DHT22;8051;50.820;4.884;2023-02-19T16:41:02;8.70;99.90
15906;DHT22;8051;50.820;4.884;2023-02-19T16:43:37;8.70;99.90
15906;DHT22;8051;50.820;4.884;2023-02-19T16:46:09;8.70;99.90
15906;DHT22;8051;50.820;4.884;2023-02-19T16:48:37;8.70;99.90
15906;DHT22;8051;50.820;4.884;2023-02-19T16:51:06;8.60;99.90
15906;DHT22;8051;50.820;4.884;2023-02-19T16:53:35;8.60;99.90
15906;DHT22;8051;50.820;4.884;2023-02-19T16:56:02;8.50;99.90